Time;durP1;ratioP1;P1;durP2;ratioP2;P2;SDS_P1;SDS_P2;PMS_P1;PMS_P2;Temp;Humidity;BMP_temperature;BMP_pressure;BME280_temperature;BME280_humidity;BME280_pressure;Samples;Min_cycle;Max_cycle;Signal;HPM_P1;HPM_P2
2022/03/10 00:02:02;;;;;;;2.45;2.25;;;1.10;99.90;;;;;;5051217;28;20041;-87
2022/03/10 00:04:28;;;;;;;0.90;0.90;;;1.20;99.90;;;;;;5049790;28;20058;-87
2022/03/10 00:06:54;;;;;;;0.47;0.47;;;1.20;99.90;;;;;;5040954;28;20033;-86
2022/03/10 00:09:19;;;;;;;0.60;0.60;;;1.20;99.90;;;;;;5038386;28;20482;-86
2022/03/10 00:11:47;;;;;;;2.97;2.58;;;1.30;99.90;;;;;;5045088;28;20048;-86
2022/03/10 00:14:13;;;;;;;0.40;0.40;;;1.20;99.90;;;;;;5041680;28;20036;-86
2022/03/10 00:16:39;;;;;;;7.75;4.45;;;1.20;99.90;;;;;;5050951;28;20036;-86
2022/03/10 00:19:05;;;;;;;1.85;0.93;;;1.20;99.90;;;;;;5058433;28;20091;-87
2022/03/10 00:21:31;;;;;;;1.05;0.95;;;1.30;99.90;;;;;;5051586;28;20045;-86
2022/03/10 00:23:57;;;;;;;8.27;4.32;;;1.30;99.90;;;;;;5051075;28;20073;-87
2022/03/10 00:26:23;;;;;;;2.50;1.33;;;1.20;99.90;;;;;;5042198;28;20041;-86
2022/03/10 00:28:49;;;;;;;0.73;0.73;;;1.20;99.90;;;;;;5055092;28;20041;-87
2022/03/10 00:31:14;;;;;;;0.60;0.60;;;1.40;99.90;;;;;;5039855;28;20045;-86
2022/03/10 00:33:40;;;;;;;1.23;0.95;;;1.50;99.90;;;;;;5043920;28;20033;-86
2022/03/10 00:36:06;;;;;;;3.13;1.83;;;1.50;99.90;;;;;;5045795;28;20450;-86
2022/03/10 00:38:32;;;;;;;1.33;0.90;;;1.70;99.90;;;;;;5058027;28;20196;-86
2022/03/10 00:40:59;;;;;;;0.70;0.70;;;1.70;99.90;;;;;;5058009;28;20044;-85
2022/03/10 00:43:24;;;;;;;1.05;0.95;;;1.50;99.90;;;;;;5038322;28;20048;-87
2022/03/10 00:45:50;;;;;;;0.82;0.82;;;1.50;99.90;;;;;;5044513;28;20047;-87
2022/03/10 00:48:15;;;;;;;1.85;1.58;;;1.50;99.90;;;;;;5045067;28;20033;-87
2022/03/10 00:50:41;;;;;;;2.05;1.67;;;1.50;99.90;;;;;;5051341;28;20401;-86
2022/03/10 00:53:07;;;;;;;1.98;1.40;;;1.50;99.90;;;;;;5044565;28;20047;-86
2022/03/10 00:55:32;;;;;;;1.08;0.93;;;0.90;99.90;;;;;;5074680;28;20229;-86
2022/03/10 00:57:58;;;;;;;0.60;0.60;;;0.20;99.90;;;;;;5039763;28;20509;-86
2022/03/10 01:00:28;;;;;;;1.30;1.10;;;0.00;99.90;;;;;;5042983;28;20040;-86
2022/03/10 01:02:54;;;;;;;1.35;0.65;;;-0.40;99.90;;;;;;5051153;28;20504;-86
2022/03/10 01:05:19;;;;;;;0.60;0.60;;;-0.60;99.90;;;;;;5063369;28;20033;-86
2022/03/10 01:07:45;;;;;;;0.70;0.70;;;-0.70;99.90;;;;;;5053278;28;20044;-86
2022/03/10 01:10:12;;;;;;;0.40;0.40;;;-0.70;99.90;;;;;;5047092;28;20420;-86
2022/03/10 01:12:41;;;;;;;2.33;1.98;;;-0.60;99.90;;;;;;5042559;28;20090;-86
2022/03/10 01:15:17;;;;;;;1.10;0.98;;;-0.50;99.90;;;;;;5060465;28;20148;-86
2022/03/10 01:17:44;;;;;;;0.40;0.40;;;-0.40;99.90;;;;;;5032979;28;20037;-86
2022/03/10 01:20:10;;;;;;;2.15;1.90;;;-0.40;99.90;;;;;;5029897;28;20055;-86
2022/03/10 01:22:36;;;;;;;1.45;1.20;;;-0.20;99.90;;;;;;5038629;28;20037;-87
2022/03/10 01:25:03;;;;;;;0.40;0.40;;;0.00;99.90;;;;;;5056448;28;20532;-86
2022/03/10 01:27:29;;;;;;;0.60;0.60;;;0.10;99.90;;;;;;5048063;28;20041;-87
2022/03/10 01:29:54;;;;;;;3.47;2.03;;;0.30;99.90;;;;;;5029154;28;20033;-86
2022/03/10 01:32:20;;;;;;;3.92;2.78;;;0.20;99.90;;;;;;5044007;28;20044;-86
2022/03/10 01:34:45;;;;;;;2.50;1.02;;;0.30;99.90;;;;;;5037849;28;20036;-87
2022/03/10 01:37:11;;;;;;;0.50;0.50;;;0.30;99.90;;;;;;5032030;28;20496;-86
2022/03/10 01:39:36;;;;;;;1.10;1.00;;;0.10;99.90;;;;;;5028686;28;20077;-87
2022/03/10 01:42:06;;;;;;;0.60;0.60;;;0.00;99.90;;;;;;5038121;28;20038;-85
2022/03/10 01:44:33;;;;;;;0.50;0.50;;;-0.10;99.90;;;;;;5024854;28;20048;-87
2022/03/10 01:46:58;;;;;;;7.93;2.10;;;-0.30;99.90;;;;;;5033403;28;20044;-87
2022/03/10 01:49:24;;;;;;;0.95;0.82;;;-0.20;99.90;;;;;;5053784;28;20515;-86
2022/03/10 01:51:50;;;;;;;0.77;0.77;;;-0.20;99.90;;;;;;5052579;28;20379;-86
2022/03/10 01:54:16;;;;;;;4.78;3.20;;;-0.20;99.90;;;;;;5037500;28;20067;-87
2022/03/10 01:56:42;;;;;;;0.88;0.70;;;-0.20;99.90;;;;;;5030116;28;20413;-86
2022/03/10 01:59:08;;;;;;;2.28;1.85;;;-0.20;99.90;;;;;;5024442;28;20067;-87
2022/03/10 02:01:35;;;;;;;0.50;0.50;;;-0.20;99.90;;;;;;5030276;28;20036;-86
2022/03/10 02:04:00;;;;;;;1.33;1.23;;;-0.20;99.90;;;;;;5030860;28;20048;-86
2022/03/10 02:06:26;;;;;;;0.50;0.50;;;-0.30;99.90;;;;;;5023962;28;20037;-86
2022/03/10 02:11:37;;;;;;;1.40;1.30;;;-0.30;99.90;;;;;;5058051;28;20044;-87
2022/03/10 02:17:19;;;;;;;4.03;2.53;;;-0.40;99.90;;;;;;5026783;28;20033;-86
2022/03/10 02:19:32;;;;;;;0.73;0.73;;;-0.40;99.90;;;;;;5063002;28;20048;-86
2022/03/10 02:22:12;;;;;;;0.40;0.40;;;-0.20;99.90;;;;;;5040212;28;20040;-86
2022/03/10 02:24:39;;;;;;;0.82;0.82;;;-0.30;99.90;;;;;;5068376;28;20064;-86
2022/03/10 02:27:13;;;;;;;1.08;1.02;;;-0.20;99.90;;;;;;5047368;28;20041;-85
2022/03/10 02:29:40;;;;;;;0.60;0.60;;;-0.10;99.90;;;;;;5059385;28;20485;-86
2022/03/10 02:32:05;;;;;;;2.05;1.85;;;0.00;99.90;;;;;;5059007;28;20044;-87
2022/03/10 02:34:31;;;;;;;3.60;2.58;;;0.00;99.90;;;;;;5052773;28;20064;-86
2022/03/10 02:36:56;;;;;;;2.38;1.40;;;0.20;99.90;;;;;;5045069;28;20036;-86
2022/03/10 02:39:22;;;;;;;1.75;1.50;;;0.20;99.90;;;;;;5052866;28;20447;-87
2022/03/10 02:41:48;;;;;;;0.75;0.75;;;0.30;99.90;;;;;;5056633;28;20037;-87
2022/03/10 02:44:13;;;;;;;0.50;0.50;;;0.30;99.90;;;;;;5033364;28;20069;-86
2022/03/10 02:46:39;;;;;;;0.50;0.50;;;0.50;99.90;;;;;;5052395;28;20127;-87
2022/03/10 02:49:04;;;;;;;0.40;0.40;;;0.60;99.90;;;;;;5075653;28;20044;-87
2022/03/10 02:51:30;;;;;;;2.33;2.15;;;0.70;99.90;;;;;;5060007;28;20043;-87
2022/03/10 02:53:55;;;;;;;2.45;2.25;;;0.70;99.90;;;;;;5046527;28;20037;-86
2022/03/10 02:56:21;;;;;;;0.60;0.60;;;0.80;99.90;;;;;;5033153;28;20123;-87
2022/03/10 02:58:46;;;;;;;0.70;0.70;;;0.80;99.90;;;;;;5089753;28;20040;-87
2022/03/10 03:01:12;;;;;;;0.82;0.60;;;0.80;99.90;;;;;;5057217;28;20037;-87
2022/03/10 03:03:38;;;;;;;0.40;0.40;;;0.90;99.90;;;;;;5071013;28;20079;-87
2022/03/10 03:06:03;;;;;;;1.92;1.83;;;0.80;99.90;;;;;;5072487;28;20033;-87
2022/03/10 03:08:29;;;;;;;1.98;1.88;;;0.70;99.90;;;;;;5076700;28;20097;-87
2022/03/10 03:10:54;;;;;;;0.40;0.40;;;0.80;99.90;;;;;;5075152;28;20036;-86
2022/03/10 03:13:20;;;;;;;0.40;0.40;;;0.80;99.90;;;;;;5062429;28;20400;-87
2022/03/10 03:15:45;;;;;;;0.50;0.50;;;0.80;99.90;;;;;;5042728;28;20040;-86
2022/03/10 03:18:11;;;;;;;0.70;0.70;;;0.80;99.90;;;;;;5039786;28;20516;-87
2022/03/10 03:20:36;;;;;;;1.15;0.70;;;0.70;99.90;;;;;;5052913;28;20099;-86
2022/03/10 03:23:02;;;;;;;0.40;0.40;;;0.70;99.90;;;;;;5052404;28;20032;-86
2022/03/10 03:25:27;;;;;;;0.60;0.60;;;0.60;99.90;;;;;;5040422;28;20052;-86
2022/03/10 03:27:53;;;;;;;1.70;1.50;;;0.50;99.90;;;;;;5044866;28;20414;-86
2022/03/10 03:30:19;;;;;;;0.55;0.55;;;0.50;99.90;;;;;;5050566;28;21756;-86
2022/03/10 03:32:45;;;;;;;0.75;0.75;;;0.60;99.90;;;;;;5039635;28;20048;-86
2022/03/10 03:35:11;;;;;;;0.50;0.50;;;0.50;99.90;;;;;;5055196;28;20044;-85
2022/03/10 03:37:36;;;;;;;0.52;0.52;;;0.60;99.90;;;;;;5045378;28;20048;-86
2022/03/10 03:40:03;;;;;;;4.15;2.70;;;0.50;99.90;;;;;;5045627;28;20100;-86
2022/03/10 03:42:32;;;;;;;1.45;1.35;;;0.50;99.90;;;;;;5062637;28;20044;-86
2022/03/10 03:44:58;;;;;;;0.50;0.50;;;0.50;99.90;;;;;;5042458;28;20051;-86
2022/03/10 03:47:24;;;;;;;0.47;0.47;;;0.50;99.90;;;;;;5045120;28;20041;-87
2022/03/10 03:49:49;;;;;;;2.42;2.22;;;0.50;99.90;;;;;;5095944;28;20091;-86
2022/03/10 03:52:15;;;;;;;0.40;0.40;;;0.50;99.90;;;;;;5045461;28;20120;-86
2022/03/10 03:54:40;;;;;;;0.50;0.50;;;0.50;99.90;;;;;;5039035;28;20037;-87
2022/03/10 03:57:06;;;;;;;0.60;0.60;;;0.40;99.90;;;;;;5043629;28;20059;-86
2022/03/10 03:59:31;;;;;;;0.50;0.50;;;0.40;99.90;;;;;;5040631;28;20032;-87
2022/03/10 04:01:57;;;;;;;0.50;0.50;;;0.40;99.90;;;;;;5049661;28;20037;-85
2022/03/10 04:04:22;;;;;;;0.60;0.60;;;0.40;99.90;;;;;;5041136;28;20033;-86
2022/03/10 04:06:49;;;;;;;1.52;1.25;;;0.40;99.90;;;;;;5044613;28;20045;-87
2022/03/10 04:09:15;;;;;;;0.40;0.40;;;0.40;99.90;;;;;;5039033;28;20131;-86
2022/03/10 04:11:40;;;;;;;1.33;1.08;;;0.30;99.90;;;;;;5052313;28;20041;-87
2022/03/10 04:14:06;;;;;;;0.50;0.50;;;0.40;99.90;;;;;;5045305;28;20525;-86
2022/03/10 04:16:31;;;;;;;0.45;0.45;;;0.40;99.90;;;;;;5038551;28;20087;-86
2022/03/10 04:18:57;;;;;;;0.40;0.40;;;0.40;99.90;;;;;;5054421;28;20394;-87
2022/03/10 04:21:23;;;;;;;7.35;6.82;;;0.40;99.90;;;;;;5074920;28;20040;-87
2022/03/10 04:23:49;;;;;;;0.50;0.50;;;0.40;99.90;;;;;;5056720;28;20047;-87
2022/03/10 04:26:15;;;;;;;0.40;0.40;;;0.30;99.90;;;;;;5046360;28;20048;-87
2022/03/10 04:28:40;;;;;;;1.02;0.90;;;0.30;99.90;;;;;;5046370;28;20047;-87
2022/03/10 04:31:07;;;;;;;0.50;0.50;;;0.20;99.90;;;;;;5044868;28;20039;-87
2022/03/10 04:33:33;;;;;;;1.02;0.95;;;0.30;99.90;;;;;;5045111;28;20036;-87
2022/03/10 04:35:59;;;;;;;0.60;0.60;;;0.30;99.90;;;;;;5047152;28;20516;-87
2022/03/10 04:38:24;;;;;;;13.23;12.00;;;0.30;99.90;;;;;;5024843;28;20045;-87
2022/03/10 04:40:50;;;;;;;1.15;1.05;;;0.30;99.90;;;;;;5065396;28;20551;-86
2022/03/10 04:43:16;;;;;;;2.75;1.80;;;0.40;99.90;;;;;;5044911;28;20080;-88
2022/03/10 04:45:41;;;;;;;3.50;2.08;;;0.40;99.90;;;;;;5048746;28;20131;-87
2022/03/10 04:48:07;;;;;;;1.17;1.08;;;0.50;99.90;;;;;;5062256;28;20043;-87
2022/03/10 04:50:33;;;;;;;1.05;0.95;;;0.40;99.90;;;;;;5043405;28;20043;-87
2022/03/10 04:52:59;;;;;;;1.38;1.27;;;0.30;99.90;;;;;;5060101;28;20538;-86
2022/03/10 04:55:25;;;;;;;0.60;0.60;;;0.30;99.90;;;;;;5050691;28;20033;-86
2022/03/10 04:57:51;;;;;;;0.50;0.50;;;0.20;99.90;;;;;;5055703;28;20033;-86
2022/03/10 05:00:18;;;;;;;4.10;3.70;;;0.20;99.90;;;;;;5052105;28;20090;-87
2022/03/10 05:02:45;;;;;;;6.82;2.15;;;0.10;99.90;;;;;;5065286;28;20083;-87
2022/03/10 05:05:13;;;;;;;0.50;0.50;;;0.10;99.90;;;;;;5044474;28;20503;-87
2022/03/10 05:07:39;;;;;;;3.15;1.63;;;0.10;99.90;;;;;;5061595;28;20076;-87
2022/03/10 05:10:05;;;;;;;1.27;1.17;;;0.10;99.90;;;;;;5048027;28;20029;-87
2022/03/10 05:12:31;;;;;;;4.05;3.75;;;0.00;99.90;;;;;;5041985;28;20029;-86
2022/03/10 05:14:56;;;;;;;1.35;1.25;;;0.00;99.90;;;;;;5041266;28;20158;-87
2022/03/10 05:17:23;;;;;;;1.42;1.33;;;0.00;99.90;;;;;;5049870;28;20101;-87
2022/03/10 05:19:51;;;;;;;0.82;0.77;;;0.10;99.90;;;;;;5060694;28;20033;-87
2022/03/10 05:22:17;;;;;;;0.50;0.50;;;0.00;99.90;;;;;;5056120;28;20037;-87
2022/03/10 05:24:43;;;;;;;1.40;1.08;;;0.00;99.90;;;;;;5059891;28;20400;-87
2022/03/10 05:27:08;;;;;;;0.50;0.50;;;0.00;99.90;;;;;;5050650;28;20040;-87
2022/03/10 05:29:40;;;;;;;0.50;0.50;;;0.00;99.90;;;;;;5046853;28;20401;-86
2022/03/10 05:32:11;;;;;;;2.60;1.40;;;0.00;99.90;;;;;;5042987;28;20086;-87
2022/03/10 05:34:37;;;;;;;1.38;1.27;;;0.00;99.90;;;;;;5057889;28;20036;-87
2022/03/10 05:37:02;;;;;;;0.73;0.73;;;0.00;99.90;;;;;;5075829;28;20123;-87
2022/03/10 05:39:28;;;;;;;0.40;0.40;;;-0.10;99.90;;;;;;5040498;28;20505;-87
2022/03/10 05:41:54;;;;;;;2.78;2.58;;;-0.10;99.90;;;;;;5046323;28;20029;-87
2022/03/10 05:44:19;;;;;;;2.45;0.80;;;-0.10;99.90;;;;;;5053096;28;20048;-87
2022/03/10 05:46:45;;;;;;;0.55;0.55;;;-0.10;99.90;;;;;;5048130;28;20511;-87
2022/03/10 05:49:10;;;;;;;0.60;0.60;;;-0.10;99.90;;;;;;5060211;28;20543;-86
2022/03/10 05:51:36;;;;;;;0.50;0.50;;;0.00;99.90;;;;;;5054255;28;20131;-86
2022/03/10 05:54:03;;;;;;;4.18;2.70;;;0.00;99.90;;;;;;5047057;28;20037;-87
2022/03/10 05:56:29;;;;;;;1.48;1.35;;;0.00;99.90;;;;;;5069896;28;20051;-86
2022/03/10 05:58:54;;;;;;;0.70;0.63;;;0.10;99.90;;;;;;5059392;28;20041;-87
2022/03/10 06:01:20;;;;;;;3.40;3.10;;;0.20;99.90;;;;;;5057124;28;20489;-86
2022/03/10 06:03:45;;;;;;;2.42;1.58;;;0.30;99.90;;;;;;5054017;28;20064;-86
2022/03/10 06:06:13;;;;;;;1.05;0.95;;;0.40;99.90;;;;;;5060329;28;20045;-87
2022/03/10 06:08:39;;;;;;;1.95;1.80;;;0.40;99.90;;;;;;5051356;28;20064;-86
2022/03/10 06:11:07;;;;;;;0.40;0.40;;;0.40;99.90;;;;;;5052974;28;20064;-85
2022/03/10 06:13:33;;;;;;;0.50;0.50;;;0.30;99.90;;;;;;5059627;28;20039;-86
2022/03/10 06:15:58;;;;;;;1.08;0.73;;;0.30;99.90;;;;;;5058775;28;20036;-85
2022/03/10 06:18:24;;;;;;;2.00;1.85;;;0.30;99.90;;;;;;5029884;28;20052;-87
2022/03/10 06:20:49;;;;;;;2.88;2.67;;;0.30;99.90;;;;;;5046088;28;20044;-87
2022/03/10 06:23:15;;;;;;;2.03;1.55;;;0.30;99.90;;;;;;5053407;28;20045;-87
2022/03/10 06:25:41;;;;;;;0.95;0.95;;;0.30;99.90;;;;;;5047699;28;21003;-87
2022/03/10 06:28:06;;;;;;;0.52;0.52;;;0.40;99.90;;;;;;5043714;28;20447;-87
2022/03/10 06:30:32;;;;;;;0.52;0.52;;;0.40;99.90;;;;;;5046460;28;20063;-88
2022/03/10 06:32:58;;;;;;;0.60;0.60;;;1.30;99.90;;;;;;5059733;28;20070;-87
2022/03/10 06:35:23;;;;;;;0.43;0.43;;;0.50;99.90;;;;;;5040188;28;20386;-87
2022/03/10 06:37:49;;;;;;;0.60;0.60;;;0.50;99.90;;;;;;5045791;28;20035;-88
2022/03/10 06:40:15;;;;;;;0.68;0.68;;;0.50;99.90;;;;;;5044166;28;20041;-88
2022/03/10 06:42:40;;;;;;;0.40;0.40;;;0.50;99.90;;;;;;5041944;28;20045;-88
2022/03/10 06:45:06;;;;;;;0.50;0.50;;;0.50;99.90;;;;;;5059488;28;20504;-87
2022/03/10 06:47:40;;;;;;;0.65;0.65;;;0.60;99.90;;;;;;5046455;28;20127;-88
2022/03/10 06:50:08;;;;;;;0.40;0.40;;;0.60;99.90;;;;;;5048509;28;20063;-87
2022/03/10 06:52:33;;;;;;;1.00;0.75;;;0.70;99.90;;;;;;5055354;28;20032;-87
2022/03/10 06:54:59;;;;;;;1.52;0.98;;;0.70;99.90;;;;;;5052446;28;20119;-87
2022/03/10 06:57:25;;;;;;;0.40;0.40;;;0.80;99.90;;;;;;5059484;28;20044;-87
2022/03/10 06:59:50;;;;;;;2.95;2.40;;;0.90;99.90;;;;;;5048875;28;20039;-87
2022/03/10 07:02:16;;;;;;;3.25;2.95;;;0.90;99.90;;;;;;5045915;28;20041;-87
2022/03/10 07:04:42;;;;;;;8.85;1.38;;;1.10;99.90;;;;;;5040361;28;20051;-88
2022/03/10 07:07:08;;;;;;;0.95;0.95;;;1.20;99.90;;;;;;5041903;28;20033;-87
2022/03/10 07:09:34;;;;;;;0.50;0.50;;;1.30;99.90;;;;;;5046217;28;20029;-88
2022/03/10 07:12:00;;;;;;;0.57;0.57;;;1.30;99.90;;;;;;5048845;28;20044;-87
2022/03/10 07:14:26;;;;;;;0.50;0.50;;;1.40;99.90;;;;;;5043084;28;20037;-88
2022/03/10 07:16:52;;;;;;;0.40;0.40;;;1.50;99.90;;;;;;5074721;28;20060;-88
2022/03/10 07:19:17;;;;;;;0.60;0.60;;;1.60;99.90;;;;;;5053338;28;20480;-87
2022/03/10 07:21:43;;;;;;;0.40;0.40;;;1.60;99.90;;;;;;5052605;28;20048;-87
2022/03/10 07:24:09;;;;;;;1.45;1.35;;;1.70;99.90;;;;;;5048620;28;20077;-87
2022/03/10 07:26:35;;;;;;;0.63;0.63;;;1.80;99.90;;;;;;5064253;28;20045;-87
2022/03/10 07:29:00;;;;;;;0.93;0.75;;;1.90;99.90;;;;;;5073538;28;20039;-88
2022/03/10 07:31:28;;;;;;;0.50;0.50;;;2.00;99.90;;;;;;5041560;28;20125;-88
2022/03/10 07:33:54;;;;;;;0.70;0.70;;;2.10;99.90;;;;;;5062399;28;20033;-88
2022/03/10 07:36:20;;;;;;;1.20;0.93;;;2.20;99.90;;;;;;5042489;28;20033;-88
2022/03/10 07:38:45;;;;;;;3.70;3.40;;;2.30;99.90;;;;;;5043589;28;20506;-87
2022/03/10 07:41:11;;;;;;;0.93;0.93;;;2.40;99.90;;;;;;5044374;28;20036;-88
2022/03/10 07:43:36;;;;;;;1.55;0.85;;;2.50;99.90;;;;;;5052729;28;20049;-87
2022/03/10 07:46:06;;;;;;;0.88;0.88;;;2.60;99.90;;;;;;5049533;28;20037;-87
2022/03/10 07:48:33;;;;;;;7.45;3.75;;;2.70;99.90;;;;;;5039767;28;20033;-88
2022/03/10 07:51:00;;;;;;;1.25;1.17;;;2.80;99.90;;;;;;5068558;28;20061;-86
2022/03/10 07:53:25;;;;;;;0.40;0.40;;;2.90;99.90;;;;;;5039561;28;20041;-87
2022/03/10 07:55:55;;;;;;;0.70;0.70;;;3.10;99.90;;;;;;5041149;28;20055;-88
2022/03/10 07:58:25;;;;;;;1.27;0.80;;;3.20;99.90;;;;;;5041233;28;20124;-88
2022/03/10 08:00:54;;;;;;;0.50;0.50;;;3.30;99.90;;;;;;5042064;28;21224;-88
2022/03/10 08:03:21;;;;;;;1.95;0.75;;;3.40;99.90;;;;;;5071740;28;20037;-88
2022/03/10 08:05:58;;;;;;;1.85;1.05;;;3.60;99.90;;;;;;5056915;28;20041;-88
2022/03/10 08:08:24;;;;;;;0.50;0.50;;;3.70;99.90;;;;;;5052285;28;20401;-86
2022/03/10 08:10:50;;;;;;;0.43;0.43;;;3.80;99.90;;;;;;5048615;28;20036;-87
2022/03/10 08:13:15;;;;;;;1.75;1.05;;;3.90;99.90;;;;;;5045622;28;20040;-87
2022/03/10 08:15:43;;;;;;;1.27;0.75;;;4.10;99.90;;;;;;5048159;28;20063;-88
2022/03/10 08:18:10;;;;;;;1.50;1.40;;;4.20;99.90;;;;;;5048448;28;20049;-87
2022/03/10 08:20:39;;;;;;;2.50;2.22;;;4.30;99.90;;;;;;5055113;28;20498;-87
2022/03/10 08:23:04;;;;;;;3.78;2.30;;;4.40;99.90;;;;;;5055579;28;20072;-87
2022/03/10 08:25:30;;;;;;;1.83;1.63;;;4.60;99.90;;;;;;5045893;28;20048;-87
2022/03/10 08:27:56;;;;;;;0.68;0.68;;;4.70;99.90;;;;;;5038995;28;20033;-88
2022/03/10 08:30:22;;;;;;;1.35;1.23;;;4.80;99.90;;;;;;5039564;28;20045;-87
2022/03/10 08:32:48;;;;;;;0.75;0.75;;;4.90;99.90;;;;;;5060791;28;20036;-87
2022/03/10 08:35:16;;;;;;;1.50;1.40;;;5.10;99.90;;;;;;5052927;28;20045;-87
2022/03/10 08:37:43;;;;;;;0.80;0.80;;;5.20;99.90;;;;;;5034580;28;20287;-87
2022/03/10 08:40:12;;;;;;;0.52;0.52;;;5.30;99.90;;;;;;5091931;28;20608;-87
2022/03/10 08:42:38;;;;;;;2.28;2.08;;;5.40;99.90;;;;;;5038268;28;20090;-87
2022/03/10 08:45:04;;;;;;;3.35;3.13;;;5.60;99.90;;;;;;5053664;28;20040;-87
2022/03/10 08:47:32;;;;;;;0.52;0.52;;;5.80;99.90;;;;;;5041233;28;20052;-87
2022/03/10 08:49:58;;;;;;;0.77;0.77;;;5.80;99.90;;;;;;5063615;28;20072;-87
2022/03/10 08:52:23;;;;;;;3.47;3.28;;;6.00;99.90;;;;;;5049876;28;20039;-87
2022/03/10 08:54:49;;;;;;;4.82;3.55;;;6.20;99.90;;;;;;5048558;28;20064;-88
2022/03/10 08:57:14;;;;;;;2.08;1.80;;;6.20;99.90;;;;;;5047654;28;20440;-87
2022/03/10 08:59:40;;;;;;;1.73;1.52;;;6.30;99.90;;;;;;5060951;28;20554;-87
2022/03/10 09:02:09;;;;;;;2.00;1.40;;;6.50;99.90;;;;;;5049644;28;20490;-87
2022/03/10 09:04:34;;;;;;;11.82;0.95;;;6.50;99.90;;;;;;5058422;28;20100;-87
2022/03/10 09:07:00;;;;;;;2.83;1.60;;;6.60;99.90;;;;;;5060253;28;20131;-88
2022/03/10 09:09:26;;;;;;;1.23;0.98;;;6.80;99.90;;;;;;5055288;28;20048;-88
2022/03/10 09:11:51;;;;;;;1.30;1.20;;;6.80;99.90;;;;;;5076874;28;20048;-88
2022/03/10 09:14:17;;;;;;;3.40;2.13;;;7.00;99.90;;;;;;5054411;28;20041;-88
2022/03/10 09:16:42;;;;;;;2.67;2.45;;;7.10;99.90;;;;;;5056994;28;20460;-87
2022/03/10 09:19:08;;;;;;;0.98;0.85;;;7.20;99.90;;;;;;5047208;28;20029;-88
2022/03/10 09:21:34;;;;;;;2.05;0.88;;;7.30;99.90;;;;;;5051633;28;20047;-87
2022/03/10 09:23:59;;;;;;;1.42;1.27;;;7.40;99.90;;;;;;5047388;28;20037;-87
2022/03/10 09:26:26;;;;;;;2.88;2.60;;;7.50;99.90;;;;;;5037494;28;20041;-87
2022/03/10 09:28:52;;;;;;;1.75;1.30;;;7.70;99.90;;;;;;5041954;28;20033;-88
2022/03/10 09:31:18;;;;;;;1.40;1.30;;;7.80;99.90;;;;;;5050385;28;20040;-87
2022/03/10 09:33:45;;;;;;;1.00;0.85;;;7.90;99.90;;;;;;5055060;28;20044;-88
2022/03/10 09:36:11;;;;;;;0.70;0.70;;;8.00;99.90;;;;;;5052024;28;20048;-87
2022/03/10 09:38:37;;;;;;;4.10;2.63;;;8.00;99.90;;;;;;5044812;28;20040;-87
2022/03/10 09:41:02;;;;;;;2.53;1.48;;;8.20;99.90;;;;;;5042779;28;20049;-87
2022/03/10 09:43:31;;;;;;;0.30;0.30;;;8.30;99.90;;;;;;5064114;28;20086;-88
2022/03/10 09:45:57;;;;;;;3.88;2.33;;;8.40;99.90;;;;;;5080256;28;20077;-87
2022/03/10 09:48:23;;;;;;;0.50;0.50;;;8.50;99.90;;;;;;5047416;28;20037;-88
2022/03/10 09:50:49;;;;;;;3.17;2.47;;;8.80;99.90;;;;;;5038725;28;20070;-87
2022/03/10 09:53:16;;;;;;;6.95;2.20;;;8.70;99.90;;;;;;5043389;28;20146;-88
2022/03/10 09:55:42;;;;;;;4.32;2.45;;;8.80;99.90;;;;;;5046260;28;20064;-87
2022/03/10 09:58:08;;;;;;;2.67;2.25;;;8.90;99.90;;;;;;5075435;28;20079;-88
2022/03/10 10:00:34;;;;;;;1.10;0.90;;;9.00;99.90;;;;;;5054121;28;20047;-88
2022/03/10 10:02:59;;;;;;;1.38;1.13;;;9.10;99.90;;;;;;5047344;28;20045;-88
2022/03/10 10:05:28;;;;;;;3.83;1.75;;;9.20;99.90;;;;;;5046869;28;20041;-88
2022/03/10 10:08:10;;;;;;;3.08;1.85;;;9.30;99.90;;;;;;5047009;28;20119;-88
2022/03/10 10:10:42;;;;;;;2.92;2.25;;;9.40;99.50;;;;;;5057989;28;20029;-87
2022/03/10 10:13:09;;;;;;;0.90;0.90;;;9.50;98.90;;;;;;5082698;28;20045;-88
2022/03/10 10:15:42;;;;;;;4.40;2.50;;;9.50;98.20;;;;;;5046677;28;20094;-88
2022/03/10 10:18:14;;;;;;;3.65;3.35;;;9.70;98.70;;;;;;5049940;28;20045;-88
2022/03/10 10:21:04;;;;;;;1.23;0.95;;;9.80;97.70;;;;;;5041940;28;20489;-88
2022/03/10 10:23:31;;;;;;;3.65;1.05;;;9.90;98.70;;;;;;5073698;28;20056;-88
2022/03/10 10:26:06;;;;;;;3.90;3.45;;;10.00;98.40;;;;;;5052512;28;20032;-87
2022/03/10 10:28:34;;;;;;;3.78;2.22;;;10.10;97.80;;;;;;5080909;28;20043;-88
2022/03/10 10:31:10;;;;;;;4.47;0.68;;;10.20;96.80;;;;;;5052171;28;20519;-88
2022/03/10 10:33:39;;;;;;;7.00;4.10;;;10.30;98.60;;;;;;5044087;28;20033;-87
2022/03/10 10:36:45;;;;;;;0.43;0.43;;;10.40;99.00;;;;;;5069889;28;20489;-88
2022/03/10 10:39:15;;;;;;;1.95;1.60;;;10.40;98.80;;;;;;5016584;28;20116;-88
2022/03/10 10:41:43;;;;;;;0.90;0.85;;;10.50;97.00;;;;;;5052433;28;20044;-88
2022/03/10 10:44:16;;;;;;;4.63;2.28;;;10.60;98.30;;;;;;5040929;28;20100;-88
2022/03/10 10:46:43;;;;;;;0.30;0.30;;;11.20;98.00;;;;;;5056422;28;20033;-88
2022/03/10 10:49:17;;;;;;;2.60;1.60;;;10.70;98.20;;;;;;5042359;28;20037;-88
2022/03/10 10:51:45;;;;;;;0.75;0.75;;;10.90;97.90;;;;;;5046531;28;20037;-88
2022/03/10 10:54:23;;;;;;;0.93;0.90;;;10.80;98.00;;;;;;5048650;28;20238;-88
2022/03/10 10:56:54;;;;;;;2.85;2.05;;;11.00;97.70;;;;;;5045234;28;20123;-88
2022/03/10 10:59:31;;;;;;;4.90;3.05;;;11.00;97.40;;;;;;5059072;28;20489;-88
2022/03/10 11:02:16;;;;;;;1.27;1.10;;;11.10;98.20;;;;;;5040036;28;20098;-88
2022/03/10 11:04:50;;;;;;;4.13;3.15;;;11.20;95.80;;;;;;5081473;28;20040;-88
2022/03/10 11:07:17;;;;;;;1.13;1.08;;;11.40;95.90;;;;;;5043347;28;20086;-88
2022/03/10 11:09:47;;;;;;;2.22;1.90;;;11.40;95.10;;;;;;5039608;28;20060;-88
2022/03/10 11:12:15;;;;;;;10.45;4.63;;;11.50;93.90;;;;;;5062253;28;20073;-88
2022/03/10 11:14:43;;;;;;;0.95;0.82;;;11.60;94.00;;;;;;5082290;28;20091;-87
2022/03/10 11:17:11;;;;;;;4.15;3.05;;;11.70;94.30;;;;;;5042291;28;20032;-87
2022/03/10 11:19:38;;;;;;;3.42;1.75;;;11.70;93.80;;;;;;5045132;28;20062;-88
2022/03/10 11:22:10;;;;;;;2.95;1.83;;;11.90;94.00;;;;;;5058086;28;20079;-87
2022/03/10 11:24:55;;;;;;;2.17;1.35;;;12.00;94.70;;;;;;5055598;28;20044;-87
2022/03/10 11:27:38;;;;;;;0.95;0.95;;;12.10;94.30;;;;;;5038895;28;20056;-87
2022/03/10 11:30:06;;;;;;;7.30;4.03;;;12.20;94.00;;;;;;5042377;28;20037;-88
2022/03/10 11:32:32;;;;;;;4.30;3.22;;;12.20;95.30;;;;;;5072046;28;20044;-88
2022/03/10 11:35:00;;;;;;;2.63;1.60;;;12.30;92.30;;;;;;5051413;28;20029;-88
2022/03/10 11:37:40;;;;;;;10.82;5.68;;;12.40;92.40;;;;;;5070146;28;20485;-88
2022/03/10 11:40:14;;;;;;;1.50;1.00;;;12.40;91.50;;;;;;5065783;28;20128;-87
2022/03/10 11:42:40;;;;;;;1.77;1.33;;;12.50;93.90;;;;;;5051036;28;20044;-88
2022/03/10 11:45:10;;;;;;;0.40;0.40;;;12.60;93.40;;;;;;5046494;28;20064;-88
2022/03/10 11:47:38;;;;;;;10.82;1.92;;;12.80;94.30;;;;;;5050563;28;20073;-88
2022/03/10 11:50:30;;;;;;;0.95;0.85;;;12.90;92.70;;;;;;5048831;28;20045;-88
2022/03/10 11:52:55;;;;;;;1.15;0.73;;;12.90;93.10;;;;;;5068275;28;20048;-88
2022/03/10 11:55:37;;;;;;;2.55;1.65;;;12.90;91.60;;;;;;5051118;28;20048;-88
2022/03/10 11:58:06;;;;;;;1.63;1.17;;;13.00;91.60;;;;;;5050274;28;20056;-88
2022/03/10 12:00:41;;;;;;;5.65;2.55;;;13.10;92.30;;;;;;5048242;28;20044;-88
2022/03/10 12:03:07;;;;;;;6.97;2.88;;;13.10;92.70;;;;;;5067521;28;20079;-88
2022/03/10 12:06:01;;;;;;;2.58;2.00;;;13.20;92.50;;;;;;5066794;28;20040;-88
2022/03/10 12:08:31;;;;;;;1.95;1.02;;;13.20;91.60;;;;;;5083662;28;20045;-88
2022/03/10 12:10:58;;;;;;;6.10;2.85;;;13.30;91.90;;;;;;5089588;28;20084;-88
2022/03/10 12:13:47;;;;;;;2.35;1.45;;;13.30;91.00;;;;;;5052292;28;20194;-88
2022/03/10 12:16:25;;;;;;;7.13;5.47;;;13.30;90.70;;;;;;5037607;28;20048;-87
2022/03/10 12:18:52;;;;;;;4.15;2.75;;;13.40;92.80;;;;;;5053693;28;20072;-88
2022/03/10 12:21:29;;;;;;;4.40;2.83;;;13.60;91.20;;;;;;5048684;28;20524;-88
2022/03/10 12:23:57;;;;;;;0.80;0.65;;;13.50;91.00;;;;;;5038090;28;20072;-89
2022/03/10 12:26:36;;;;;;;2.28;1.58;;;13.40;91.10;;;;;;5042307;28;20032;-88
2022/03/10 12:29:13;;;;;;;4.65;2.92;;;13.60;91.90;;;;;;5054089;28;20489;-88
2022/03/10 12:31:42;;;;;;;4.85;2.90;;;13.60;91.40;;;;;;5057622;28;20056;-88
2022/03/10 12:34:12;;;;;;;7.43;4.75;;;13.60;91.00;;;;;;5037937;28;20043;-87
2022/03/10 12:36:49;;;;;;;14.15;5.57;;;13.60;89.90;;;;;;5043636;28;20120;-88
2022/03/10 12:39:16;;;;;;;4.18;2.58;;;13.70;90.80;;;;;;5060795;28;20036;-88
2022/03/10 12:41:48;;;;;;;8.63;3.90;;;13.70;89.90;;;;;;5054149;28;20048;-88
2022/03/10 12:44:18;;;;;;;3.42;2.85;;;13.80;87.00;;;;;;5038577;28;20123;-89
2022/03/10 12:46:43;;;;;;;6.85;2.78;;;13.70;90.70;;;;;;5059081;28;20625;-88
2022/03/10 12:49:13;;;;;;;3.40;1.77;;;13.70;90.00;;;;;;5054181;28;20048;-88
2022/03/10 12:51:39;;;;;;;1.20;1.00;;;13.70;87.50;;;;;;5050720;28;20493;-88
2022/03/10 12:54:07;;;;;;;6.38;3.75;;;13.80;89.40;;;;;;5055229;28;20042;-88
2022/03/10 12:56:46;;;;;;;4.20;2.45;;;14.00;89.50;;;;;;5052280;28;20040;-88
2022/03/10 12:59:12;;;;;;;1.75;1.65;;;13.80;87.50;;;;;;5046759;28;20203;-88
2022/03/10 13:01:39;;;;;;;4.85;2.83;;;13.80;90.40;;;;;;5100876;28;20052;-87